Time;durP1;ratioP1;P1;durP2;ratioP2;P2;SDS_P1;SDS_P2;PMS_P1;PMS_P2;Temp;Humidity;BMP_temperature;BMP_pressure;BME280_temperature;BME280_humidity;BME280_pressure;Samples;Min_cycle;Max_cycle;Signal;HPM_P1;HPM_P2
2023/12/13 00:01:26;;;;;;;32.92;9.57;;;6.40;99.90;;;7.09;100.00;98872.72;5025809;28;20078;-79
2023/12/13 00:03:53;;;;;;;27.60;8.77;;;6.40;99.90;;;7.13;100.00;98873.88;5026367;28;20033;-79
2023/12/13 00:06:19;;;;;;;36.03;10.10;;;6.40;99.90;;;7.09;100.00;98864.59;5032359;28;20033;-79
2023/12/13 00:08:45;;;;;;;29.00;9.50;;;6.40;99.90;;;7.06;100.00;98871.31;5033228;28;20037;-79
2023/12/13 00:11:11;;;;;;;32.85;9.27;;;6.40;99.90;;;6.95;100.00;98858.59;5033174;28;20051;-79
2023/12/13 00:13:37;;;;;;;29.58;10.00;;;6.40;99.90;;;7.09;100.00;98864.59;5033207;28;20029;-78
2023/12/13 00:16:03;;;;;;;24.98;9.73;;;6.40;99.90;;;7.02;100.00;98860.13;5033547;28;20046;-79
2023/12/13 00:18:29;;;;;;;24.05;9.57;;;6.40;99.90;;;6.99;100.00;98849.75;5033403;28;20113;-79
2023/12/13 00:20:55;;;;;;;32.00;10.93;;;6.40;99.90;;;6.98;100.00;98845.38;5049292;28;20218;-79
2023/12/13 00:23:22;;;;;;;32.38;10.27;;;6.50;99.90;;;7.08;100.00;98849.38;5032900;28;20038;-79
2023/12/13 00:25:48;;;;;;;28.30;9.98;;;6.40;99.90;;;7.21;100.00;98862.69;5033535;28;20033;-80
2023/12/13 00:28:14;;;;;;;26.30;9.75;;;6.40;99.90;;;7.25;100.00;98861.16;5033670;28;20076;-80
2023/12/13 00:30:39;;;;;;;33.85;10.27;;;6.40;99.90;;;7.15;100.00;98859.03;5015950;28;20038;-79
2023/12/13 00:33:05;;;;;;;28.58;9.60;;;6.40;99.90;;;7.16;100.00;98870.69;5032843;28;20477;-78
2023/12/13 00:35:31;;;;;;;32.25;10.15;;;6.40;99.90;;;7.10;100.00;98860.81;5032214;28;20029;-79
2023/12/13 00:37:57;;;;;;;32.72;10.25;;;6.40;99.90;;;7.16;100.00;98870.69;5032480;28;20037;-79
2023/12/13 00:40:24;;;;;;;25.25;10.23;;;6.30;99.90;;;7.39;100.00;98874.44;5025537;28;20366;-80
2023/12/13 00:42:50;;;;;;;31.07;10.07;;;6.30;99.90;;;7.26;100.00;98859.25;5031966;28;20072;-79
2023/12/13 00:45:16;;;;;;;25.52;10.07;;;6.40;99.90;;;7.43;100.00;98854.75;5032002;28;20056;-79
2023/12/13 00:47:42;;;;;;;27.63;10.55;;;6.30;99.90;;;7.32;100.00;98869.97;5032654;28;20056;-80
2023/12/13 00:50:08;;;;;;;31.13;10.07;;;6.30;99.90;;;7.13;100.00;98860.34;5031850;28;20508;-79
2023/12/13 00:52:35;;;;;;;28.15;11.70;;;6.30;99.90;;;6.91;100.00;98844.69;5033133;28;20069;-79
2023/12/13 00:55:02;;;;;;;32.65;11.63;;;6.30;99.90;;;6.93;100.00;98848.00;5032348;28;20048;-79
2023/12/13 00:57:28;;;;;;;33.15;12.18;;;6.30;99.90;;;6.94;100.00;98841.50;5032599;28;20397;-79
2023/12/13 00:59:53;;;;;;;30.85;11.27;;;6.30;99.90;;;6.94;100.00;98846.09;5032223;28;20033;-80
2023/12/13 01:02:20;;;;;;;31.95;10.98;;;6.20;99.90;;;6.93;100.00;98839.03;5030850;28;20038;-79
2023/12/13 01:04:45;;;;;;;35.47;12.18;;;6.20;99.90;;;6.89;100.00;98841.38;5030594;28;20481;-80
2023/12/13 01:07:11;;;;;;;36.97;12.38;;;6.10;99.90;;;6.81;100.00;98842.56;5046251;28;20041;-79
2023/12/13 01:09:39;;;;;;;41.47;12.75;;;6.00;99.90;;;6.46;100.00;98833.38;5031128;28;20025;-79
2023/12/13 01:12:06;;;;;;;31.15;12.23;;;6.00;99.90;;;6.53;100.00;98833.25;5030883;28;20048;-79
2023/12/13 01:14:33;;;;;;;39.53;13.68;;;6.00;99.90;;;6.35;100.00;98817.91;5030372;28;20032;-79
2023/12/13 01:16:59;;;;;;;39.80;13.98;;;5.90;99.90;;;6.33;100.00;98820.88;5030814;28;20033;-79
2023/12/13 01:19:25;;;;;;;33.47;13.35;;;5.90;99.90;;;6.29;100.00;98814.28;5030377;28;20381;-79
2023/12/13 01:21:51;;;;;;;44.22;16.27;;;5.90;99.90;;;6.36;100.00;98813.34;5029333;28;20123;-78
2023/12/13 01:24:18;;;;;;;42.92;16.73;;;5.90;99.90;;;6.37;100.00;98796.88;5028983;28;20477;-79
2023/12/13 01:26:44;;;;;;;45.30;16.75;;;5.90;99.90;;;6.43;100.00;98806.75;5029132;28;20116;-79
2023/12/13 01:29:10;;;;;;;45.20;18.30;;;5.90;99.90;;;6.50;100.00;98801.22;5030628;28;20114;-79
2023/12/13 01:31:36;;;;;;;44.78;17.60;;;5.90;99.90;;;6.51;100.00;98800.16;5026724;28;20033;-79
2023/12/13 01:34:02;;;;;;;44.97;18.15;;;5.90;99.90;;;6.52;100.00;98795.56;5029481;28;20055;-79
2023/12/13 01:36:29;;;;;;;47.50;17.73;;;5.90;99.90;;;6.58;100.00;98821.69;5029245;28;20485;-79
2023/12/13 01:38:54;;;;;;;38.97;17.17;;;5.80;99.90;;;6.81;100.00;98831.72;5027386;28;20041;-80
2023/12/13 01:41:20;;;;;;;40.33;16.00;;;5.80;99.90;;;6.98;100.00;98834.53;5042107;28;20040;-79
2023/12/13 01:43:46;;;;;;;44.90;16.30;;;5.80;99.90;;;7.03;100.00;98855.53;5028320;28;20032;-79
2023/12/13 01:46:16;;;;;;;44.60;18.08;;;5.80;99.90;;;7.21;100.00;98862.69;5023971;28;20053;-80
2023/12/13 01:48:43;;;;;;;39.40;16.20;;;5.80;99.90;;;7.14;100.00;98867.41;5027691;28;20057;-80
2023/12/13 01:51:09;;;;;;;36.05;15.35;;;5.80;99.90;;;7.26;100.00;98873.66;5030231;28;20025;-80
2023/12/13 01:53:38;;;;;;;39.97;16.05;;;5.80;99.90;;;7.21;100.00;98870.84;5030687;28;20116;-79
2023/12/13 01:56:07;;;;;;;36.05;16.33;;;5.90;99.90;;;7.26;100.00;98870.94;5029890;28;20032;-80
2023/12/13 01:58:39;;;;;;;37.33;15.70;;;5.90;99.90;;;7.23;100.00;98863.28;5029923;28;20056;-79
2023/12/13 02:01:07;;;;;;;41.13;16.15;;;5.90;99.90;;;7.31;100.00;98864.81;4995756;28;1008592;-79
2023/12/13 02:03:35;;;;;;;37.28;15.10;;;5.90;99.90;;;7.25;100.00;98874.72;5031476;28;20038;-80
2023/12/13 02:06:04;;;;;;;36.22;15.68;;;5.90;99.90;;;7.42;100.00;98873.97;5031227;28;20037;-79
2023/12/13 02:08:31;;;;;;;35.47;14.98;;;5.90;99.90;;;6.98;100.00;98868.94;5027854;28;20041;-79
2023/12/13 02:10:58;;;;;;;36.53;15.25;;;5.90;99.90;;;7.07;100.00;98864.84;5031344;28;20037;-79
2023/12/13 02:13:24;;;;;;;33.47;15.48;;;5.90;99.90;;;7.08;100.00;98866.50;5031411;28;20053;-79
2023/12/13 02:15:50;;;;;;;37.15;14.48;;;5.90;99.90;;;7.22;100.00;98860.78;5031035;28;20041;-79
2023/12/13 02:18:16;;;;;;;34.38;15.73;;;5.90;99.90;;;7.41;100.00;98869.59;5030751;28;20033;-79
2023/12/13 02:20:43;;;;;;;34.08;14.93;;;6.00;99.90;;;7.53;100.00;98873.13;5031868;28;20489;-79
2023/12/13 02:23:09;;;;;;;28.67;14.07;;;6.00;99.90;;;7.55;100.00;98857.41;5030429;28;20041;-79
2023/12/13 02:25:55;;;;;;;35.17;14.23;;;6.10;99.90;;;7.74;100.00;98871.63;5023130;28;20102;-79
2023/12/13 02:28:23;;;;;;;29.15;12.80;;;6.10;99.90;;;7.59;100.00;98857.78;5028124;28;20761;-80
2023/12/13 02:30:52;;;;;;;34.15;14.25;;;6.20;99.90;;;7.40;100.00;98857.09;5044918;28;20049;-80
2023/12/13 02:33:18;;;;;;;31.90;14.85;;;6.10;99.90;;;7.27;100.00;98867.16;5027251;28;20041;-79
2023/12/13 02:35:44;;;;;;;28.55;14.55;;;6.10;99.90;;;7.55;100.00;98862.84;5030613;28;20065;-80
2023/12/13 02:38:10;;;;;;;30.35;14.07;;;6.10;99.90;;;7.45;100.00;98874.31;5029955;28;20092;-80
2023/12/13 02:40:36;;;;;;;38.05;14.88;;;6.10;99.90;;;7.56;100.00;98878.06;5030187;28;20034;-80
2023/12/13 02:43:02;;;;;;;33.65;15.07;;;6.10;99.90;;;7.43;100.00;98859.34;5027312;28;20040;-80
2023/12/13 02:45:28;;;;;;;30.10;14.85;;;6.10;99.90;;;7.41;100.00;98843.31;5030811;28;20038;-80
2023/12/13 02:47:56;;;;;;;32.42;14.00;;;6.20;99.90;;;7.42;100.00;98871.25;5029392;28;20045;-80
2023/12/13 02:50:21;;;;;;;;;;;6.20;99.90;;;7.36;100.00;98864.91;5030988;28;20037;-80
2023/12/13 02:52:47;;;;;;;31.48;14.10;;;6.20;99.90;;;7.12;100.00;98858.69;5031398;28;20107;-80
2023/12/13 02:55:13;;;;;;;32.00;15.27;;;6.20;99.90;;;7.06;100.00;98849.63;5045700;28;20068;-80
2023/12/13 02:57:39;;;;;;;33.00;15.15;;;6.10;99.90;;;7.19;100.00;98864.81;5030580;28;20040;-80
2023/12/13 03:00:06;;;;;;;36.30;15.13;;;6.10;99.90;;;7.31;100.00;98862.91;5030240;28;20061;-80
2023/12/13 03:02:32;;;;;;;37.35;16.50;;;6.10;99.90;;;7.35;100.00;98841.56;5030185;28;20164;-81
2023/12/13 03:05:01;;;;;;;30.77;15.40;;;6.20;99.90;;;7.61;100.00;98859.16;5030450;28;20172;-80
2023/12/13 03:07:27;;;;;;;31.85;15.48;;;6.20;99.90;;;7.62;100.00;98863.53;5030358;28;20105;-80
2023/12/13 03:09:53;;;;;;;36.58;15.68;;;6.30;99.90;;;7.48;100.00;98857.56;5030301;28;20036;-81
2023/12/13 03:12:19;;;;;;;36.25;15.73;;;6.30;99.90;;;7.09;100.00;98868.13;5029952;28;20396;-79
2023/12/13 03:14:44;;;;;;;31.75;15.00;;;6.30;99.90;;;7.13;100.00;98852.19;5030131;28;20037;-80
2023/12/13 03:17:10;;;;;;;33.40;14.98;;;6.20;99.90;;;7.19;100.00;98843.13;5029395;28;20041;-80
2023/12/13 03:19:36;;;;;;;33.10;15.18;;;6.30;99.90;;;7.20;100.00;98842.88;5030096;28;20034;-80
2023/12/13 03:22:02;;;;;;;32.90;14.30;;;6.20;99.90;;;7.27;100.00;98844.63;5029058;28;20029;-80
2023/12/13 03:24:28;;;;;;;30.70;14.15;;;6.20;99.90;;;7.29;100.00;98848.75;5029388;28;20037;-80
2023/12/13 03:26:54;;;;;;;39.70;15.90;;;6.30;99.90;;;7.14;100.00;98832.16;5029266;28;20128;-80
2023/12/13 03:29:20;;;;;;;28.77;14.38;;;6.30;99.90;;;7.37;100.00;98842.13;5029177;28;20158;-79
2023/12/13 03:31:45;;;;;;;30.13;13.68;;;6.20;99.90;;;7.49;100.00;98831.25;5029650;28;20056;-80
2023/12/13 03:34:11;;;;;;;31.33;14.27;;;6.20;99.90;;;7.50;100.00;98827.47;5029924;28;20041;-80
2023/12/13 03:36:37;;;;;;;41.83;14.98;;;6.20;99.90;;;7.44;100.00;98834.69;5030029;28;20384;-80
2023/12/13 03:39:03;;;;;;;26.85;14.23;;;6.20;99.90;;;7.59;100.00;98845.00;5023082;28;20462;-80
2023/12/13 03:41:28;;;;;;;32.70;14.55;;;6.20;99.90;;;7.51;100.00;98837.25;5029523;28;20152;-80
2023/12/13 03:43:54;;;;;;;30.17;13.60;;;6.20;99.90;;;7.61;100.00;98850.22;5028678;28;20402;-80
2023/12/13 03:46:21;;;;;;;36.03;13.65;;;6.20;99.90;;;7.36;100.00;98845.91;5029575;28;20049;-80
2023/12/13 03:48:47;;;;;;;27.67;13.48;;;6.20;99.90;;;7.42;100.00;98838.69;5030660;28;20029;-79
2023/12/13 03:51:12;;;;;;;27.58;14.00;;;6.20;99.90;;;7.48;100.00;98835.84;5028011;28;20052;-80
2023/12/13 03:53:39;;;;;;;26.35;13.82;;;6.20;99.90;;;7.54;100.00;98849.50;5032421;28;20426;-80
2023/12/13 03:56:05;;;;;;;26.73;14.35;;;6.20;99.90;;;7.65;100.00;98855.97;5029707;28;20368;-80
2023/12/13 03:58:31;;;;;;;28.35;13.65;;;6.20;99.90;;;7.31;100.00;98830.34;5029403;28;20030;-80
2023/12/13 04:01:00;;;;;;;27.17;14.18;;;6.20;99.90;;;7.55;100.00;98840.28;5030210;28;20041;-79
2023/12/13 04:03:25;;;;;;;27.38;14.38;;;6.10;99.90;;;7.60;100.00;98852.09;5029646;28;20037;-79
2023/12/13 04:05:51;;;;;;;29.02;13.68;;;6.10;99.90;;;7.66;100.00;98853.03;5029664;28;20030;-79
2023/12/13 04:08:17;;;;;;;28.70;14.05;;;6.20;99.90;;;7.54;100.00;98850.34;5029702;28;20037;-80
2023/12/13 04:10:42;;;;;;;28.52;13.85;;;6.20;99.90;;;7.46;100.00;98848.81;5029645;28;20064;-80
2023/12/13 04:13:08;;;;;;;30.05;14.02;;;6.20;99.90;;;7.25;100.00;98842.16;5028793;28;20052;-80
2023/12/13 04:15:34;;;;;;;32.00;14.52;;;6.20;99.90;;;7.25;100.00;98836.75;5029905;28;20029;-80
2023/12/13 04:17:59;;;;;;;29.88;14.02;;;6.10;99.90;;;7.49;100.00;98852.97;5030491;28;20038;-80
2023/12/13 04:20:25;;;;;;;28.75;14.30;;;6.20;99.90;;;7.50;100.00;98838.34;5028589;28;20038;-80
2023/12/13 04:22:51;;;;;;;36.08;13.90;;;6.20;99.90;;;7.56;100.00;98831.94;5028895;28;20401;-79
2023/12/13 04:25:16;;;;;;;24.17;13.77;;;6.20;99.90;;;7.62;100.00;98847.25;5025371;28;20083;-80
2023/12/13 04:27:43;;;;;;;28.05;14.40;;;6.20;99.90;;;7.69;100.00;98854.41;5028309;28;20084;-80
2023/12/13 04:30:11;;;;;;;28.38;13.43;;;6.20;99.90;;;7.68;100.00;98841.91;5044771;28;20029;-80
2023/12/13 04:32:40;;;;;;;31.15;13.70;;;6.20;99.90;;;7.85;100.00;98850.94;5025446;28;20041;-80
2023/12/13 04:35:08;;;;;;;25.25;12.60;;;6.30;99.90;;;7.86;100.00;98846.34;5024405;28;20057;-80
2023/12/13 04:37:35;;;;;;;22.55;13.27;;;6.30;99.90;;;7.84;100.00;98843.03;5029170;28;20038;-80
2023/12/13 04:40:01;;;;;;;28.17;14.10;;;6.30;99.90;;;7.72;100.00;98846.63;5025967;28;20104;-80
2023/12/13 04:42:27;;;;;;;27.60;12.40;;;6.30;99.90;;;7.34;100.00;98824.44;5029529;28;20037;-79
2023/12/13 04:44:53;;;;;;;24.17;12.23;;;6.40;99.90;;;7.74;100.00;98849.09;5028786;28;20055;-80
2023/12/13 04:47:19;;;;;;;25.38;11.15;;;6.50;99.90;;;7.71;100.00;98844.97;5028907;28;20037;-80
2023/12/13 04:49:45;;;;;;;23.83;11.23;;;6.50;99.90;;;7.87;100.00;98832.50;5028079;28;20041;-80
2023/12/13 04:52:11;;;;;;;27.92;13.27;;;6.60;99.90;;;7.94;100.00;98835.06;5029224;28;20120;-80
2023/12/13 04:54:37;;;;;;;27.50;11.77;;;6.60;99.90;;;7.88;100.00;98834.16;5031521;28;20496;-80
2023/12/13 04:57:04;;;;;;;25.63;12.52;;;6.70;99.90;;;8.05;100.00;98828.75;5047479;28;20045;-80
2023/12/13 04:59:30;;;;;;;24.30;13.07;;;6.70;99.90;;;8.18;100.00;98843.09;5030991;28;20099;-80
2023/12/13 05:01:56;;;;;;;20.73;10.70;;;6.70;99.90;;;8.13;100.00;98838.41;5031998;28;20525;-80
2023/12/13 05:04:22;;;;;;;23.80;10.63;;;6.80;99.90;;;8.14;100.00;98822.94;5047965;28;20033;-80
2023/12/13 05:06:48;;;;;;;23.67;11.32;;;6.80;99.90;;;8.34;100.00;98836.03;5026507;28;20370;-80
2023/12/13 05:09:13;;;;;;;19.33;9.82;;;6.80;99.90;;;8.40;100.00;98834.22;5032418;28;20037;-80
2023/12/13 05:11:39;;;;;;;21.77;10.32;;;6.90;99.90;;;8.41;100.00;98827.72;5031796;28;20049;-80
2023/12/13 05:14:05;;;;;;;21.73;9.88;;;6.90;99.90;;;8.47;100.00;98841.13;5030201;28;20037;-80
2023/12/13 05:16:30;;;;;;;20.45;9.80;;;7.00;99.90;;;8.40;100.00;98829.59;5032620;28;20045;-80
2023/12/13 05:18:56;;;;;;;23.02;10.95;;;7.00;99.90;;;8.30;100.00;98829.44;5032850;28;20034;-80
2023/12/13 05:21:22;;;;;;;19.77;9.82;;;7.00;99.90;;;8.29;100.00;98830.50;5031036;28;20030;-80
2023/12/13 05:23:48;;;;;;;22.65;9.35;;;7.00;99.90;;;8.35;100.00;98830.38;5031999;28;20444;-81
2023/12/13 05:26:14;;;;;;;19.48;9.27;;;7.10;99.90;;;8.34;100.00;98833.31;5031357;28;20542;-80
2023/12/13 05:28:39;;;;;;;18.88;9.43;;;7.10;99.90;;;8.36;100.00;98823.03;5031830;28;20041;-81
2023/12/13 05:31:05;;;;;;;21.05;9.57;;;7.10;99.90;;;8.40;100.00;98826.88;5030461;28;20033;-82
2023/12/13 05:33:31;;;;;;;18.13;9.25;;;7.10;99.90;;;8.52;100.00;98842.34;5047763;28;20449;-81
2023/12/13 05:35:57;;;;;;;17.50;8.25;;;7.10;99.90;;;8.50;100.00;98831.69;5031498;28;20037;-81
2023/12/13 05:38:22;;;;;;;19.60;8.90;;;7.10;99.90;;;8.42;100.00;98830.19;5028287;28;20542;-81
2023/12/13 05:40:48;;;;;;;18.75;8.18;;;7.10;99.90;;;8.44;100.00;98829.94;5031756;28;20029;-82
2023/12/13 05:43:14;;;;;;;17.25;8.35;;;7.10;99.90;;;8.50;100.00;98834.41;5031532;28;20037;-82
2023/12/13 05:45:40;;;;;;;19.75;9.57;;;7.20;99.90;;;8.39;100.00;98819.00;5031376;28;20048;-82
2023/12/13 05:48:05;;;;;;;16.90;9.13;;;7.20;99.90;;;8.42;100.00;98832.09;5021026;28;20037;-82
2023/12/13 05:50:31;;;;;;;17.35;8.65;;;7.10;99.90;;;8.49;100.00;98836.31;5031156;28;20037;-81
2023/12/13 05:52:57;;;;;;;19.13;8.60;;;7.10;99.90;;;8.58;100.00;98841.34;5030124;28;20433;-82
2023/12/13 05:55:23;;;;;;;16.33;8.82;;;7.20;99.90;;;8.58;100.00;98830.47;5058187;28;20124;-83
2023/12/13 05:57:48;;;;;;;17.95;8.52;;;7.10;99.90;;;8.57;100.00;98847.84;5030879;28;20045;-83
2023/12/13 06:00:15;;;;;;;18.00;9.35;;;7.20;99.90;;;8.54;100.00;98840.19;5029947;28;20392;-83
2023/12/13 06:02:40;;;;;;;17.40;8.77;;;7.20;99.90;;;8.48;100.00;98836.53;5045816;28;20250;-82
2023/12/13 06:05:07;;;;;;;20.23;9.65;;;7.20;99.90;;;8.59;100.00;98837.53;5045497;28;20444;-82
2023/12/13 06:07:33;;;;;;;18.65;9.15;;;7.20;99.90;;;8.65;100.00;98850.13;5030795;28;20037;-84
2023/12/13 06:09:59;;;;;;;17.77;9.50;;;7.10;99.90;;;8.74;100.00;98845.09;5023735;28;20049;-91
2023/12/13 06:12:24;;;;;;;20.95;9.63;;;7.20;99.90;;;8.55;100.00;98842.63;5010878;28;20034;-83
2023/12/13 06:14:50;;;;;;;20.02;9.82;;;7.20;99.90;;;8.46;100.00;98852.25;5046592;28;20374;-82
2023/12/13 06:17:16;;;;;;;20.10;9.90;;;7.10;99.90;;;8.55;100.00;98856.22;5029917;28;20095;-83
2023/12/13 06:19:41;;;;;;;26.60;10.63;;;7.10;99.90;;;8.65;100.00;98852.84;5031052;28;20075;-82
2023/12/13 06:22:07;;;;;;;21.95;10.45;;;7.10;99.90;;;8.61;100.00;98846.28;5030835;28;20346;-85
2023/12/13 06:24:36;;;;;;;20.10;9.85;;;7.10;99.90;;;8.57;100.00;98845.13;5031153;28;20033;-85
2023/12/13 06:27:03;;;;;;;22.92;10.63;;;7.10;99.90;;;8.63;100.00;98853.13;5011025;28;20069;-85
2023/12/13 06:29:29;;;;;;;22.60;10.50;;;7.10;99.90;;;8.57;100.00;98851.38;5029334;28;20041;-84
2023/12/13 06:31:55;;;;;;;24.15;10.13;;;7.10;99.90;;;8.29;100.00;98858.50;5031109;28;20033;-83
2023/12/13 06:34:20;;;;;;;19.85;10.15;;;7.10;99.90;;;8.48;100.00;98847.41;5015186;28;20045;-82
2023/12/13 06:36:46;;;;;;;22.58;10.20;;;7.10;99.90;;;8.56;100.00;98852.44;5029914;28;20033;-83
2023/12/13 06:39:12;;;;;;;21.50;10.38;;;7.10;99.90;;;8.31;100.00;98831.91;5030727;28;20305;-84
2023/12/13 06:41:41;;;;;;;29.08;11.00;;;7.10;99.90;;;8.44;100.00;98841.63;5030263;28;20046;-82
2023/12/13 06:44:07;;;;;;;20.40;10.27;;;7.10;99.90;;;8.51;100.00;98857.81;5030075;28;20121;-82
2023/12/13 06:46:33;;;;;;;21.50;10.65;;;7.00;99.90;;;8.37;100.00;98854.56;5027038;28;20068;-82
2023/12/13 06:48:59;;;;;;;24.50;11.65;;;7.00;99.90;;;8.38;100.00;98858.91;5027927;28;20392;-82
2023/12/13 06:51:26;;;;;;;22.73;10.65;;;7.00;99.90;;;8.31;100.00;98845.50;5030786;28;20108;-82
2023/12/13 06:53:52;;;;;;;24.80;10.85;;;7.00;99.90;;;8.31;100.00;98847.41;5029791;28;20389;-82
2023/12/13 06:56:18;;;;;;;21.17;10.63;;;7.00;99.90;;;8.28;100.00;98847.88;5030229;28;20048;-82
2023/12/13 06:58:44;;;;;;;24.83;11.07;;;7.00;99.90;;;8.23;100.00;98836.94;5031079;28;20341;-82
2023/12/13 07:01:10;;;;;;;22.83;11.07;;;7.00;99.90;;;8.37;100.00;98849.13;5030238;28;20128;-82
2023/12/13 07:03:36;;;;;;;22.58;10.75;;;7.00;99.90;;;8.41;100.00;98858.41;5029700;28;20047;-82
2023/12/13 07:06:04;;;;;;;24.23;11.52;;;7.00;99.90;;;8.44;100.00;98857.94;5014021;28;20041;-82
2023/12/13 07:08:29;;;;;;;;;;;7.00;99.90;;;8.48;100.00;98864.50;5030813;28;20460;-82
2023/12/13 07:10:55;;;;;;;23.40;10.55;;;7.00;99.90;;;8.42;100.00;98864.69;5030197;28;19964;-82
2023/12/13 07:13:21;;;;;;;22.67;11.48;;;6.80;99.90;;;8.39;100.00;98870.63;5029345;28;20072;-82
2023/12/13 07:15:47;;;;;;;23.75;11.50;;;6.80;99.90;;;8.41;100.00;98874.72;5030173;28;20663;-83
2023/12/13 07:18:12;;;;;;;24.98;11.98;;;6.80;99.90;;;8.17;100.00;98858.56;5021515;28;20048;-83
2023/12/13 07:20:38;;;;;;;24.73;11.05;;;6.80;99.90;;;8.22;100.00;98874.13;5030231;28;20037;-82
2023/12/13 07:23:05;;;;;;;21.35;11.10;;;6.70;99.90;;;8.24;100.00;98871.19;5029073;28;20049;-83
2023/12/13 07:25:31;;;;;;;25.65;11.63;;;6.80;99.90;;;8.30;100.00;98879.16;5039946;28;20871;-82
2023/12/13 07:27:57;;;;;;;24.58;11.90;;;6.70;99.90;;;8.26;100.00;98882.63;5019815;28;20046;-83
2023/12/13 07:30:25;;;;;;;24.80;11.23;;;6.70;99.90;;;8.15;100.00;98885.16;5028847;28;20036;-81
2023/12/13 07:32:53;;;;;;;24.33;12.18;;;6.80;99.90;;;7.90;100.00;98845.59;5024221;28;20123;-81
2023/12/13 07:35:19;;;;;;;24.15;11.13;;;6.80;99.90;;;8.18;100.00;98878.41;5029692;28;20084;-82
2023/12/13 07:37:45;;;;;;;24.75;11.88;;;6.80;99.90;;;8.33;100.00;98878.66;5029459;28;20037;-82
2023/12/13 07:40:11;;;;;;;24.73;11.60;;;6.90;99.90;;;8.40;100.00;98875.81;5029465;28;20041;-81
2023/12/13 07:42:37;;;;;;;22.55;11.38;;;6.90;99.90;;;8.39;100.00;98863.28;5029716;28;20053;-81
2023/12/13 07:45:03;;;;;;;26.60;12.00;;;6.90;99.90;;;8.49;100.00;98885.25;5029021;28;20515;-81
2023/12/13 07:47:29;;;;;;;25.98;11.68;;;7.00;99.90;;;8.61;100.00;98889.75;5042838;28;20030;-81
2023/12/13 07:49:54;;;;;;;25.30;11.50;;;7.00;99.90;;;8.65;100.00;98890.91;5030343;28;20431;-82
2023/12/13 07:52:20;;;;;;;25.33;12.48;;;7.00;99.90;;;8.61;100.00;98879.69;5029366;28;20040;-82
2023/12/13 07:54:48;;;;;;;26.02;12.45;;;7.10;99.90;;;8.68;100.00;98890.41;5029638;28;20393;-82
2023/12/13 07:57:14;;;;;;;26.08;11.63;;;7.10;99.90;;;8.64;100.00;98894.69;5029245;28;20034;-79
2023/12/13 07:59:40;;;;;;;23.10;11.45;;;7.10;99.90;;;8.71;100.00;98897.25;5029386;28;20037;-79
2023/12/13 08:02:06;;;;;;;27.90;12.25;;;7.10;99.90;;;8.66;100.00;98892.56;5042027;28;20367;-79
2023/12/13 08:04:32;;;;;;;23.13;12.05;;;7.10;99.90;;;8.66;100.00;98898.00;5029540;28;20040;-79
2023/12/13 08:06:57;;;;;;;25.35;10.80;;;7.10;99.90;;;8.68;100.00;98895.84;5029503;28;20057;-79
2023/12/13 08:09:23;;;;;;;27.63;11.98;;;7.20;99.90;;;8.73;100.00;98900.56;5028737;28;20040;-79
2023/12/13 08:11:49;;;;;;;26.70;11.60;;;7.20;99.90;;;8.74;100.00;98894.84;5029454;28;20047;-79
2023/12/13 08:14:15;;;;;;;25.77;11.98;;;7.20;99.90;;;8.65;100.00;98912.66;5044494;28;20476;-80
2023/12/13 08:16:41;;;;;;;22.73;11.60;;;7.20;99.90;;;8.64;100.00;98894.69;5029394;28;20635;-80
2023/12/13 08:19:07;;;;;;;24.38;11.43;;;7.20;99.90;;;8.64;100.00;98897.41;5029514;28;20049;-80
2023/12/13 08:21:33;;;;;;;24.77;11.77;;;7.30;99.90;;;8.68;100.00;98878.72;5028002;28;20026;-80
2023/12/13 08:23:59;;;;;;;26.15;11.95;;;7.30;99.90;;;8.83;100.00;98908.06;5028593;28;20033;-80
2023/12/13 08:26:27;;;;;;;25.13;11.80;;;7.30;99.90;;;8.83;100.00;98908.06;5029419;28;20037;-80
2023/12/13 08:28:53;;;;;;;26.23;12.23;;;7.30;99.90;;;8.84;100.00;98898.81;5031613;28;20075;-80
2023/12/13 08:31:18;;;;;;;24.25;12.18;;;7.40;99.90;;;8.86;100.00;98904.84;5033090;28;20106;-79
2023/12/13 08:33:45;;;;;;;23.83;11.85;;;7.40;99.90;;;8.88;100.00;98913.56;5033506;28;20041;-78
2023/12/13 08:36:12;;;;;;;22.67;11.20;;;7.40;99.90;;;8.98;100.00;98907.47;5031924;28;20422;-79
2023/12/13 08:38:42;;;;;;;21.98;11.50;;;7.40;99.90;;;9.00;100.00;98917.00;5029477;28;20405;-78
2023/12/13 08:41:11;;;;;;;21.92;10.95;;;7.40;99.90;;;9.06;100.00;98910.59;5032960;28;20041;-79
2023/12/13 08:43:38;;;;;;;20.50;11.30;;;7.50;99.90;;;9.09;100.00;98922.06;5032844;28;20037;-78
2023/12/13 08:46:04;;;;;;;27.05;11.75;;;7.50;99.90;;;9.13;100.00;98918.56;5033084;28;20124;-78
2023/12/13 08:48:30;;;;;;;25.05;11.52;;;7.60;99.90;;;9.15;100.00;98923.75;5031947;28;20087;-78
2023/12/13 08:50:57;;;;;;;24.40;11.15;;;7.60;99.90;;;9.24;100.00;98919.53;5032226;28;20037;-78
2023/12/13 08:53:24;;;;;;;21.77;10.85;;;7.60;99.90;;;9.24;100.00;98919.53;5032306;28;20038;-78
2023/12/13 08:55:50;;;;;;;21.73;11.23;;;7.70;99.90;;;9.38;100.00;98924.63;5032793;28;20421;-78
2023/12/13 08:58:15;;;;;;;20.15;10.80;;;7.70;99.90;;;9.43;100.00;98924.69;5032532;28;20025;-78
2023/12/13 09:00:41;;;;;;;22.35;11.32;;;7.80;99.90;;;9.40;100.00;98926.00;5032771;28;20623;-77
2023/12/13 09:03:08;;;;;;;21.10;10.40;;;7.80;99.90;;;9.36;100.00;98922.16;5031765;28;20042;-79
2023/12/13 09:05:35;;;;;;;19.85;10.45;;;7.80;99.90;;;9.41;100.00;98921.41;5031732;28;20033;-77
2023/12/13 09:08:01;;;;;;;19.63;10.60;;;7.90;99.90;;;9.35;100.00;98924.06;5032430;28;20041;-78
2023/12/13 09:10:27;;;;;;;20.40;10.73;;;7.90;99.90;;;9.45;100.00;98926.09;5047465;28;20488;-78
2023/12/13 09:12:52;;;;;;;18.55;10.65;;;7.90;99.90;;;9.45;100.00;98923.38;5032506;28;20150;-78
2023/12/13 09:15:18;;;;;;;21.48;10.98;;;7.90;99.90;;;9.68;100.00;98923.38;5031828;28;20041;-77
2023/12/13 09:17:48;;;;;;;22.50;10.63;;;8.10;99.90;;;9.86;100.00;98922.25;5032381;28;20048;-77
2023/12/13 09:20:17;;;;;;;18.30;10.60;;;8.30;99.90;;;10.01;100.00;98930.59;5046499;28;20053;-78
2023/12/13 09:22:43;;;;;;;20.50;10.68;;;8.50;99.90;;;10.04;100.00;98926.53;5047375;28;20030;-78
2023/12/13 09:25:16;;;;;;;21.08;11.15;;;8.60;99.90;;;10.20;100.00;98935.69;5032304;28;20528;-80
2023/12/13 09:27:43;;;;;;;22.70;10.50;;;8.70;99.90;;;10.38;100.00;98941.88;5031787;28;20038;-78
2023/12/13 09:30:09;;;;;;;18.80;10.07;;;8.80;99.90;;;10.46;100.00;98939.53;5047707;28;21844;-78
2023/12/13 09:32:35;;;;;;;15.95;10.05;;;9.00;99.90;;;10.65;100.00;98963.72;5009732;28;20041;-80
2023/12/13 09:35:02;;;;;;;19.25;10.10;;;9.00;99.90;;;10.61;100.00;98971.59;5031900;28;20052;-78
2023/12/13 09:37:28;;;;;;;15.30;9.60;;;9.00;99.90;;;10.51;100.00;98963.31;5031756;28;20037;-78
2023/12/13 09:39:53;;;;;;;17.25;10.05;;;9.00;99.90;;;10.45;100.00;98956.97;5047781;28;20492;-78
2023/12/13 09:42:19;;;;;;;15.45;9.45;;;8.90;99.90;;;10.57;100.00;98961.44;5031798;28;20040;-78
2023/12/13 09:44:49;;;;;;;15.20;8.77;;;9.00;99.90;;;10.74;100.00;98964.88;5031584;28;20040;-79
2023/12/13 09:47:17;;;;;;;15.27;8.05;;;9.00;99.90;;;10.56;100.00;98970.69;5031681;28;20026;-79
2023/12/13 09:49:44;;;;;;;13.95;8.63;;;9.10;99.90;;;10.88;100.00;98978.91;5030905;28;20056;-78
2023/12/13 09:52:11;;;;;;;13.10;7.47;;;9.20;99.90;;;10.88;100.00;98967.19;5031232;28;20128;-79
2023/12/13 09:54:39;;;;;;;12.07;7.40;;;9.20;99.90;;;10.96;100.00;98980.34;5032219;28;20377;-80
2023/12/13 09:57:07;;;;;;;14.63;7.93;;;9.30;99.90;;;10.94;100.00;98983.31;5032092;28;20156;-80
2023/12/13 09:59:35;;;;;;;10.95;7.47;;;9.30;99.90;;;10.89;100.00;98985.22;5031457;28;20091;-79
2023/12/13 10:02:01;;;;;;;11.50;7.60;;;9.30;99.90;;;10.84;100.00;98991.44;5031278;28;20047;-79
2023/12/13 10:04:28;;;;;;;13.10;7.68;;;9.30;99.90;;;10.86;100.00;98988.44;5031290;28;20034;-80
2023/12/13 10:06:57;;;;;;;12.07;6.95;;;9.30;99.90;;;10.94;100.00;98980.59;5030481;28;20401;-80
2023/12/13 10:09:29;;;;;;;13.32;6.90;;;9.20;99.90;;;10.90;100.00;98975.94;5031502;28;20061;-80